Time;durP1;ratioP1;P1;durP2;ratioP2;P2;SDS_P1;SDS_P2;PMS_P1;PMS_P2;Temp;Humidity;BMP_temperature;BMP_pressure;BME280_temperature;BME280_humidity;BME280_pressure;Samples;Min_cycle;Max_cycle;Signal;HPM_P1;HPM_P2
2023/07/04 00:01:12;;;;;;;;;;;;;;;23.85;100.00;99347.81;5072286;28;19963;-80
2023/07/04 00:03:39;;;;;;;;;;;;;;;23.86;100.00;99354.00;5072112;28;19935;-79
2023/07/04 00:06:05;;;;;;;;;;;;;;;23.83;100.00;99349.94;5071692;28;19922;-81
2023/07/04 00:08:33;;;;;;;;;;;;;;;23.80;100.00;99350.38;5072190;28;19920;-80
2023/07/04 00:10:59;;;;;;;;;;;;;;;23.84;100.00;99348.06;5073290;28;20322;-79
2023/07/04 00:13:29;;;;;;;;;;;;;;;23.77;100.00;99350.84;5072651;28;20370;-80
2023/07/04 00:15:54;;;;;;;;;;;;;;;23.80;100.00;99353.06;5072830;28;19916;-80
2023/07/04 00:18:21;;;;;;;;;;;;;;;23.80;100.00;99349.59;5072073;28;19916;-80
2023/07/04 00:20:54;;;;;;;;;;;;;;;23.78;100.00;99357.88;5069032;28;19916;-81
2023/07/04 00:23:27;;;;;;;;;;;;;;;23.84;100.00;99356.97;5072855;28;20323;-81
2023/07/04 00:25:53;;;;;;;;;;;;;;;23.88;100.00;99362.69;5072839;28;20287;-82
2023/07/04 00:28:21;;;;;;;;;;;;;;;23.84;100.00;99361.53;5076192;28;20295;-81
2023/07/04 00:30:53;;;;;;;;;;;;;;;23.83;100.00;99363.41;5075967;28;19916;-81
2023/07/04 00:33:20;;;;;;;;;;;;;;;23.81;100.00;99367.38;5073952;28;19919;-80
2023/07/04 00:35:45;;;;;;;;;;;;;;;23.74;100.00;99362.09;5074811;28;19920;-81
2023/07/04 00:38:12;;;;;;;;;;;;;;;23.76;100.00;99365.38;5076312;28;19920;-82
2023/07/04 00:40:38;;;;;;;;;;;;;;;23.82;100.00;99361.75;5075837;28;19923;-81
2023/07/04 00:43:04;;;;;;;;;;;;;;;23.82;100.00;99369.84;5076390;28;19962;-82
2023/07/04 00:45:33;;;;;;;;;;;;;;;23.80;100.00;99361.16;5075808;28;20003;-81
2023/07/04 00:48:00;;;;;;;;;;;;;;;23.78;100.00;99365.97;5074884;28;19956;-82
2023/07/04 00:50:38;;;;;;;;;;;;;;;23.73;100.00;99365.84;5076095;28;19985;-80
2023/07/04 00:53:08;;;;;;;;;;;;;;;23.67;100.00;99361.41;5074961;28;19917;-82
2023/07/04 00:55:37;;;;;;;;;;;;;;;23.67;100.00;99366.78;5074296;28;20298;-81
2023/07/04 00:58:05;;;;;;;;;;;;;;;23.67;100.00;99374.88;5073333;28;20299;-82
2023/07/04 01:00:31;;;;;;;;;;;;;;;23.62;100.00;99374.75;5073163;28;19927;-82
2023/07/04 01:03:09;;;;;;;;;;;;;;;23.66;100.00;99375.91;5072145;28;19922;-82
2023/07/04 01:05:42;;;;;;;;;;;;;;;23.66;100.00;99378.59;5074156;28;19916;-81
2023/07/04 01:08:12;;;;;;;;;;;;;;;23.65;100.00;99390.44;5073991;28;20062;-81
2023/07/04 01:10:44;;;;;;;;;;;;;;;23.57;100.00;99398.81;5073913;28;20325;-80
2023/07/04 01:13:28;;;;;;;;;;;;;;;23.62;100.00;99402.47;5074304;28;19912;-82
2023/07/04 01:15:53;;;;;;;;;;;;;;;23.62;100.00;99402.47;5070944;28;19923;-81
2023/07/04 01:18:19;;;;;;;;;;;;;;;23.62;100.00;99407.06;5074467;28;20361;-80
2023/07/04 01:20:46;;;;;;;;;;;;;;;23.61;100.00;99410.81;5073779;28;20386;-80
2023/07/04 01:23:27;;;;;;;;;;;;;;;23.59;100.00;99410.22;5073360;28;19916;-82
2023/07/04 01:25:56;;;;;;;;;;;;;;;23.61;100.00;99416.19;5071243;28;19916;-82
2023/07/04 01:28:21;;;;;;;;;;;;;;;23.61;100.00;99411.63;5074146;28;19948;-82
2023/07/04 01:30:47;;;;;;;;;;;;;;;23.64;100.00;99415.72;5073908;28;20386;-82
2023/07/04 01:33:14;;;;;;;;;;;;;;;23.61;100.00;99416.19;5072322;28;19924;-82
2023/07/04 01:35:40;;;;;;;;;;;;;;;23.61;100.00;99417.03;5073392;28;19916;-82
2023/07/04 01:38:06;;;;;;;;;;;;;;;23.60;100.00;99420.75;5074272;28;20010;-82
2023/07/04 01:40:34;;;;;;;;;;;;;;;23.60;100.00;99414.53;5072691;28;19924;-82
2023/07/04 01:43:03;;;;;;;;;;;;;;;23.57;100.00;99421.19;5074405;28;19916;-83
2023/07/04 01:45:28;;;;;;;;;;;;;;;23.60;100.00;99425.31;5073737;28;20379;-81
2023/07/04 01:47:53;;;;;;;;;;;;;;;23.59;100.00;99418.28;5074066;28;19969;-81
2023/07/04 01:50:19;;;;;;;;;;;;;;;23.56;100.00;99413.38;5072320;28;19975;-82
2023/07/04 01:52:45;;;;;;;;;;;;;;;23.53;100.00;99421.91;5074161;28;19920;-81
2023/07/04 01:55:11;;;;;;;;;;;;;;;23.52;100.00;99422.94;5073450;28;19916;-82
2023/07/04 01:57:37;;;;;;;;;;;;;;;23.44;100.00;99415.19;5074328;28;19963;-80
2023/07/04 02:00:04;;;;;;;;;;;;;;;23.45;100.00;99427.56;5072355;28;19952;-82
2023/07/04 02:02:51;;;;;;;;;;;;;;;23.44;100.00;99423.25;5070438;28;19955;-82
2023/07/04 02:05:19;;;;;;;;;;;;;;;23.42;100.00;99433.44;5071764;28;19977;-82
2023/07/04 02:07:47;;;;;;;;;;;;;;;23.40;100.00;99430.94;5071779;28;19947;-81
2023/07/04 02:10:12;;;;;;;;;;;;;;;23.38;100.00;99429.56;5071747;28;19925;-81
2023/07/04 02:12:37;;;;;;;;;;;;;;;23.39;100.00;99431.19;5071885;28;19916;-81
2023/07/04 02:15:03;;;;;;;;;;;;;;;23.38;100.00;99437.63;5071807;28;20010;-82
2023/07/04 02:17:28;;;;;;;;;;;;;;;23.34;100.00;99429.16;5071564;28;19928;-80
2023/07/04 02:19:54;;;;;;;;;;;;;;;23.34;100.00;99431.03;5072128;28;19916;-81
2023/07/04 02:22:19;;;;;;;;;;;;;;;23.33;100.00;99437.50;5069970;28;19917;-82
2023/07/04 02:24:45;;;;;;;;;;;;;;;23.27;100.00;99437.34;5071656;28;19927;-82
2023/07/04 02:27:10;;;;;;;;;;;;;;;23.22;100.00;99431.81;5071395;28;20401;-81
2023/07/04 02:29:36;;;;;;;;;;;;;;;23.20;100.00;99435.81;5071522;28;19916;-80
2023/07/04 02:32:01;;;;;;;;;;;;;;;23.15;100.00;99433.75;5070124;28;20010;-82
2023/07/04 02:34:27;;;;;;;;;;;;;;;23.13;100.00;99435.88;5069926;28;19919;-80
2023/07/04 02:36:52;;;;;;;;;;;;;;;23.05;100.00;99438.88;5070081;28;20326;-81
2023/07/04 02:39:18;;;;;;;;;;;;;;;23.06;100.00;99440.53;5070805;28;19923;-80
2023/07/04 02:41:43;;;;;;;;;;;;;;;23.04;100.00;99448.00;5070138;28;19912;-81
2023/07/04 02:44:08;;;;;;;;;;;;;;;23.00;100.00;99441.44;5070349;28;19916;-81
2023/07/04 02:46:34;;;;;;;;;;;;;;;22.97;100.00;99441.88;5069825;28;19916;-80
2023/07/04 02:49:05;;;;;;;;;;;;;;;22.99;100.00;99444.34;5069507;28;20495;-82
2023/07/04 02:51:32;;;;;;;;;;;;;;;22.94;100.00;99436.94;5069888;28;19997;-81
2023/07/04 02:53:58;;;;;;;;;;;;;;;22.92;100.00;99444.41;5069534;28;19920;-81
2023/07/04 02:56:23;;;;;;;;;;;;;;;22.93;100.00;99448.75;5070505;28;19916;-81
2023/07/04 02:58:49;;;;;;;;;;;;;;;22.91;100.00;99448.16;5070344;28;20007;-81
2023/07/04 03:01:14;;;;;;;;;;;;;;;22.93;100.00;99450.63;5070826;28;19924;-81
2023/07/04 03:03:41;;;;;;;;;;;;;;;22.94;100.00;99458.47;5069982;28;19923;-80
2023/07/04 03:06:06;;;;;;;;;;;;;;;22.94;100.00;99447.72;5071263;28;19916;-80
2023/07/04 03:08:33;;;;;;;;;;;;;;;22.93;100.00;99442.53;5069304;28;20022;-81
2023/07/04 03:10:59;;;;;;;;;;;;;;;22.93;100.00;99451.44;5069569;28;19955;-81
2023/07/04 03:13:28;;;;;;;;;;;;;;;22.93;100.00;99446.06;5069363;28;20104;-81
2023/07/04 03:15:53;;;;;;;;;;;;;;;22.90;100.00;99451.09;5069565;28;20020;-81
2023/07/04 03:18:20;;;;;;;;;;;;;;;22.93;100.00;99446.06;5069541;28;19944;-81
2023/07/04 03:20:45;;;;;;;;;;;;;;;22.92;100.00;99444.41;5069795;28;20444;-80
2023/07/04 03:23:10;;;;;;;;;;;;;;;22.91;100.00;99448.16;5069675;28;19916;-81
2023/07/04 03:25:37;;;;;;;;;;;;;;;22.96;100.00;99442.94;5069097;28;19917;-81
2023/07/04 03:28:03;;;;;;;;;;;;;;;22.98;100.00;99442.69;5070747;28;20402;-82
2023/07/04 03:30:29;;;;;;;;;;;;;;;22.96;100.00;99455.56;5049664;28;19920;-80
2023/07/04 03:33:01;;;;;;;;;;;;;;;22.98;100.00;99448.88;5069807;28;19920;-83
2023/07/04 03:35:26;;;;;;;;;;;;;;;22.95;100.00;99443.97;5070875;28;19924;-80
2023/07/04 03:37:53;;;;;;;;;;;;;;;22.96;100.00;99460.94;5070899;28;20364;-82
2023/07/04 03:40:18;;;;;;;;;;;;;;;22.98;100.00;99458.84;5070486;28;19924;-82
2023/07/04 03:42:44;;;;;;;;;;;;;;;22.97;100.00;99463.41;5070630;28;19959;-82
2023/07/04 03:45:10;;;;;;;;;;;;;;;22.95;100.00;99465.50;5070390;28;19945;-80
2023/07/04 03:47:35;;;;;;;;;;;;;;;22.94;100.00;99469.22;5070793;28;19925;-81
2023/07/04 03:50:02;;;;;;;;;;;;;;;22.94;100.00;99468.41;5069824;28;20368;-81
2023/07/04 03:52:28;;;;;;;;;;;;;;;22.96;100.00;99471.72;5069350;28;19938;-82
2023/07/04 03:54:53;;;;;;;;;;;;;;;22.97;100.00;99468.81;5069661;28;19963;-83
2023/07/04 03:57:19;;;;;;;;;;;;;;;22.96;100.00;99477.09;5071732;28;19927;-81
2023/07/04 03:59:45;;;;;;;;;;;;;;;22.96;100.00;99472.53;5073974;28;19962;-81
2023/07/04 04:02:11;;;;;;;;;;;;;;;22.95;100.00;99487.03;5073713;28;19916;-81
2023/07/04 04:04:39;;;;;;;;;;;;;;;22.97;100.00;99478.75;5074292;28;19916;-80
2023/07/04 04:07:07;;;;;;;;;;;;;;;22.98;100.00;99486.56;5074459;28;20275;-82
2023/07/04 04:09:36;;;;;;;;;;;;;;;22.98;100.00;99491.94;5072865;28;20291;-80
2023/07/04 04:12:01;;;;;;;;;;;;;;;22.96;100.00;99494.06;5072920;28;19917;-80
2023/07/04 04:14:28;;;;;;;;;;;;;;;22.97;100.00;99498.41;5073698;28;19923;-81
2023/07/04 04:16:53;;;;;;;;;;;;;;;23.00;100.00;99503.31;5074087;28;19920;-81
2023/07/04 04:19:19;;;;;;;;;;;;;;;22.97;100.00;99501.09;5073967;28;19917;-81
2023/07/04 04:21:44;;;;;;;;;;;;;;;22.93;100.00;99505.25;5074371;28;19916;-81
2023/07/04 04:24:09;;;;;;;;;;;;;;;22.95;100.00;99507.72;5074116;28;19916;-80
2023/07/04 04:26:38;;;;;;;;;;;;;;;22.88;100.00;99510.50;5073295;28;19924;-82
2023/07/04 04:29:08;;;;;;;;;;;;;;;22.85;100.00;99513.63;5073587;28;19928;-81
2023/07/04 04:31:37;;;;;;;;;;;;;;;22.86;100.00;99509.88;5073728;28;19980;-80
2023/07/04 04:34:02;;;;;;;;;;;;;;;22.84;100.00;99517.38;5076085;28;19997;-81
2023/07/04 04:36:28;;;;;;;;;;;;;;;22.88;100.00;99515.88;5073697;28;20011;-81
2023/07/04 04:38:53;;;;;;;;;;;;;;;22.85;100.00;99519.81;5074838;28;19916;-80
2023/07/04 04:41:19;;;;;;;;;;;;;;;22.87;100.00;99524.97;5073243;28;19917;-81
2023/07/04 04:43:45;;;;;;;;;;;;;;;22.85;100.00;99524.41;5073490;28;19920;-80
2023/07/04 04:46:10;;;;;;;;;;;;;;;22.85;100.00;99521.72;5073361;28;19985;-81
2023/07/04 04:48:35;;;;;;;;;;;;;;;22.85;100.00;99529.78;5073645;28;19927;-79
2023/07/04 04:51:07;;;;;;;;;;;;;;;22.82;100.00;99536.41;5074089;28;19923;-82
2023/07/04 04:53:36;;;;;;;;;;;;;;;22.81;100.00;99531.25;5073114;28;19920;-80
2023/07/04 04:56:02;;;;;;;;;;;;;;;22.82;100.00;99530.22;5073830;28;19927;-79
2023/07/04 04:58:27;;;;;;;;;;;;;;;22.86;100.00;99531.41;5073189;28;20006;-80
2023/07/04 05:00:53;;;;;;;;;;;;;;;22.88;100.00;99537.41;5073158;28;20028;-80
2023/07/04 05:03:18;;;;;;;;;;;;;;;22.90;100.00;99538.00;5073048;28;20269;-80
2023/07/04 05:05:43;;;;;;;;;;;;;;;22.95;100.00;99546.22;5073381;28;19916;-80
2023/07/04 05:08:09;;;;;;;;;;;;;;;22.94;100.00;99549.13;5072031;28;19922;-79
2023/07/04 05:10:34;;;;;;;;;;;;;;;22.80;100.00;99549.25;5072910;28;19924;-79
2023/07/04 05:12:59;;;;;;;;;;;;;;;22.82;100.00;99551.72;5073373;28;19916;-81
2023/07/04 05:15:25;;;;;;;;;;;;;;;22.85;100.00;99556.69;5073088;28;19952;-81
2023/07/04 05:17:50;;;;;;;;;;;;;;;22.87;100.00;99554.59;5072922;28;19927;-80
2023/07/04 05:20:22;;;;;;;;;;;;;;;22.90;100.00;99559.53;5072884;28;19922;-79
2023/07/04 05:22:48;;;;;;;;;;;;;;;22.91;100.00;99561.19;5072212;28;19920;-80
2023/07/04 05:25:13;;;;;;;;;;;;;;;22.95;100.00;99567.75;5072899;28;20375;-78
2023/07/04 05:27:38;;;;;;;;;;;;;;;23.00;100.00;99567.91;5072757;28;19916;-78
2023/07/04 05:30:04;;;;;;;;;;;;;;;23.08;100.00;99567.63;5072416;28;20381;-79
2023/07/04 05:32:30;;;;;;;;;;;;;;;23.07;100.00;99560.59;5072146;28;19916;-80
2023/07/04 05:34:55;;;;;;;;;;;;;;;23.15;100.00;99562.19;5072605;28;19920;-80
2023/07/04 05:37:20;;;;;;;;;;;;;;;23.13;100.00;99559.69;5072209;28;20288;-81
2023/07/04 05:39:46;;;;;;;;;;;;;;;23.09;100.00;99558.47;5069256;28;20265;-81
2023/07/04 05:42:11;;;;;;;;;;;;;;;23.16;100.00;99561.94;5072063;28;19940;-79
2023/07/04 05:44:37;;;;;;;;;;;;;;;23.20;100.00;99559.63;5072547;28;20007;-81
2023/07/04 05:47:02;;;;;;;;;;;;;;;23.22;100.00;99557.53;5072113;28;19924;-78
2023/07/04 05:49:27;;;;;;;;;;;;;;;23.23;100.00;99568.06;5069642;28;19916;-81
2023/07/04 05:51:53;;;;;;;;;;;;;;;23.25;100.00;99568.69;5072257;28;19927;-80
2023/07/04 05:54:18;;;;;;;;;;;;;;;23.23;100.00;99572.63;5072065;28;20265;-80
2023/07/04 05:56:44;;;;;;;;;;;;;;;23.22;100.00;99577.19;5071698;28;19921;-80
2023/07/04 05:59:09;;;;;;;;;;;;;;;23.18;100.00;99567.94;5072301;28;19924;-78
2023/07/04 06:01:37;;;;;;;;;;;;;;;23.22;100.00;99569.09;5071670;28;19970;-80
2023/07/04 06:04:04;;;;;;;;;;;;;;;23.25;100.00;99565.97;5060031;28;19963;-79
2023/07/04 06:06:32;;;;;;;;;;;;;;;23.30;100.00;99564.47;5070634;28;19923;-79
2023/07/04 06:08:58;;;;;;;;;;;;;;;23.30;100.00;99553.72;5071952;28;19912;-84
2023/07/04 06:11:26;;;;;;;;;;;;;;;23.35;100.00;99551.16;5065578;28;20338;-84
2023/07/04 06:13:52;;;;;;;;;;;;;;;23.42;100.00;99551.91;4360550;28;10020685;-79
2023/07/04 06:16:18;;;;;;;;;;;;;;;23.45;100.00;99546.06;5067275;28;19908;-77
2023/07/04 06:18:43;;;;;;;;;;;;;;;23.53;100.00;99548.47;5068422;28;20387;-79
2023/07/04 06:21:10;;;;;;;;;;;;;;;23.55;100.00;99558.00;5068611;28;19916;-79
2023/07/04 06:23:35;;;;;;;;;;;;;;;23.53;100.00;99559.25;5068611;28;20018;-78
2023/07/04 06:26:01;;;;;;;;;;;;;;;23.56;100.00;99556.91;5068357;28;19955;-79
2023/07/04 06:28:26;;;;;;;;;;;;;;;23.62;100.00;99568.69;5068442;28;19912;-79
2023/07/04 06:30:51;;;;;;;;;;;;;;;23.67;100.00;99566.13;5068845;28;19952;-81
2023/07/04 06:33:17;;;;;;;;;;;;;;;23.71;100.00;99567.31;5067687;28;19916;-78
2023/07/04 06:35:42;;;;;;;;;;;;;;;23.78;100.00;99565.34;5068128;28;19920;-77
2023/07/04 06:38:08;;;;;;;;;;;;;;;23.85;100.00;99568.78;5067928;28;19996;-78
2023/07/04 06:40:34;;;;;;;;;;;;;;;23.91;100.00;99573.28;5068310;28;19924;-78
2023/07/04 06:42:59;;;;;;;;;;;;;;;23.93;100.00;99573.84;5068448;28;19916;-78
2023/07/04 06:45:24;;;;;;;;;;;;;;;23.93;100.00;99579.25;5068699;28;19931;-78
2023/07/04 06:47:51;;;;;;;;;;;;;;;24.01;100.00;99573.53;5063466;28;20019;-78
2023/07/04 06:50:16;;;;;;;;;;;;;;;24.14;100.00;99571.69;5067438;28;20501;-78
2023/07/04 06:52:42;;;;;;;;;;;;;;;24.23;100.00;99581.94;5065974;28;20408;-81
2023/07/04 06:55:07;;;;;;;;;;;;;;;24.28;100.00;99578.56;4718078;28;9999658;-80
2023/07/04 06:57:33;;;;;;;;;;;;;;;24.35;100.00;99577.41;5070414;28;19931;-79
2023/07/04 06:59:58;;;;;;;;;;;;;;;24.36;100.00;99586.31;5070884;28;19916;-79
2023/07/04 07:02:24;;;;;;;;;;;;;;;24.42;100.00;99590.78;5070617;28;20017;-76
2023/07/04 07:04:49;;;;;;;;;;;;;;;24.48;100.00;99590.69;5069691;28;20399;-78
2023/07/04 07:07:15;;;;;;;;;;;;;;;24.49;100.00;99591.50;5069244;28;19920;-78
2023/07/04 07:09:41;;;;;;;;;;;;;;;24.39;100.00;99585.84;5070435;28;19916;-77
2023/07/04 07:12:10;;;;;;;;;;;;;;;24.40;100.00;99592.88;5069210;28;19916;-77
2023/07/04 07:14:36;;;;;;;;;;;;;;;24.35;100.00;99590.06;5070075;28;19956;-76
2023/07/04 07:17:02;;;;;;;;;;;;;;;24.37;100.00;99590.66;5070582;28;20003;-76
2023/07/04 07:19:28;;;;;;;;;;;;;;;24.39;100.00;99591.22;5069938;28;19966;-76
2023/07/04 07:21:54;;;;;;;;;;;;;;;24.46;100.00;99591.97;5069629;28;19917;-79
2023/07/04 07:24:20;;;;;;;;;;;;;;;24.53;100.00;99583.75;5070429;28;20015;-83
2023/07/04 07:26:46;;;;;;;;;;;;;;;24.59;100.00;99591.75;5069184;28;19923;-82
2023/07/04 07:29:11;;;;;;;;;;;;;;;24.63;100.00;99584.81;5052647;28;19916;-82
2023/07/04 07:31:38;;;;;;;;;;;;;;;24.65;100.00;99585.44;5071828;28;19995;-83
2023/07/04 07:34:03;;;;;;;;;;;;;;;24.66;100.00;99592.47;5073788;28;20070;-82
2023/07/04 07:36:35;;;;;;;;;;;;;;;24.74;100.00;99584.00;5073925;28;20026;-83
2023/07/04 07:39:02;;;;;;;;;;;;;;;24.76;100.00;99592.72;5074634;28;20006;-81
2023/07/04 07:41:32;;;;;;;;;;;;;;;24.81;100.00;99584.72;5074157;28;19923;-82
2023/07/04 07:43:57;;;;;;;;;;;;;;;24.83;100.00;99589.91;5075021;28;19924;-82
2023/07/04 07:46:23;;;;;;;;;;;;;;;24.85;100.00;99591.31;5074485;28;19916;-82
2023/07/04 07:48:48;;;;;;;;;;;;;;;24.84;100.00;99586.97;5069407;28;19924;-82
2023/07/04 07:51:14;;;;;;;;;;;;;;;24.91;100.00;99586.06;5074117;28;19987;-82
2023/07/04 07:53:41;;;;;;;;;;;;;;;24.93;100.00;99586.63;5074158;28;19917;-82
2023/07/04 07:56:08;;;;;;;;;;;;;;;25.01;100.00;99583.59;5075484;28;19916;-81
2023/07/04 07:58:33;;;;;;;;;;;;;;;25.05;100.00;99580.19;5074317;28;19924;-82
2023/07/04 08:00:59;;;;;;;;;;;;;;;25.04;100.00;99585.81;5073003;28;19928;-81
2023/07/04 08:03:24;;;;;;;;;;;;;;;24.96;100.00;99586.19;5073767;28;19916;-82
2023/07/04 08:05:50;;;;;;;;;;;;;;;25.01;100.00;99589.00;5074146;28;20011;-81
2023/07/04 08:08:15;;;;;;;;;;;;;;;25.04;100.00;99583.09;5071596;28;20379;-82
2023/07/04 08:10:41;;;;;;;;;;;;;;;25.11;100.00;99589.22;5073751;28;19932;-82
2023/07/04 08:13:06;;;;;;;;;;;;;;;25.18;100.00;99587.22;5075461;28;20279;-83
2023/07/04 08:15:32;;;;;;;;;;;;;;;25.19;100.00;99584.28;5073892;28;19929;-83
2023/07/04 08:18:04;;;;;;;;;;;;;;;25.22;100.00;99582.97;5074084;28;19916;-84
2023/07/04 08:20:30;;;;;;;;;;;;;;;25.26;100.00;99582.28;5073841;28;19920;-83
2023/07/04 08:22:55;;;;;;;;;;;;;;;25.27;100.00;99593.91;5073588;28;20444;-85
2023/07/04 08:25:20;;;;;;;;;;;;;;;25.29;100.00;99591.78;5073466;28;19916;-83
2023/07/04 08:27:46;;;;;;;;;;;;;;;25.36;100.00;99592.47;5073523;28;19916;-84
2023/07/04 08:30:11;;;;;;;;;;;;;;;25.40;100.00;99595.50;5073755;28;20387;-83
2023/07/04 08:32:36;;;;;;;;;;;;;;;25.43;100.00;99595.88;5073803;28;20367;-86
2023/07/04 08:35:03;;;;;;;;;;;;;;;25.43;100.00;99597.75;5073924;28;19934;-82
2023/07/04 08:37:28;;;;;;;;;;;;;;;25.50;100.00;99593.03;5073492;28;19923;-82
2023/07/04 08:39:55;;;;;;;;;;;;;;;25.54;100.00;99596.91;5072231;28;19916;-83
2023/07/04 08:42:22;;;;;;;;;;;;;;;25.56;100.00;99595.66;5072825;28;19916;-82
2023/07/04 08:44:50;;;;;;;;;;;;;;;25.62;100.00;99597.38;5072285;28;19916;-82
2023/07/04 08:47:16;;;;;;;;;;;;;;;25.64;100.00;99584.44;5073456;28;19932;-84
2023/07/04 08:49:49;;;;;;;;;;;;;;;25.68;100.00;99585.59;5073736;28;19939;-84
2023/07/04 08:52:21;;;;;;;;;;;;;;;25.75;100.00;99592.75;5073503;28;20379;-84
2023/07/04 08:54:47;;;;;;;;;;;;;;;25.69;100.00;99589.94;5073198;28;19963;-86
2023/07/04 08:57:15;;;;;;;;;;;;;;;25.71;100.00;99588.88;5072727;28;19964;-86
2023/07/04 08:59:42;;;;;;;;;;;;;;;25.75;100.00;99592.75;5073300;28;19993;-83
2023/07/04 09:02:29;;;;;;;;;;;;;;;25.78;100.00;99589.56;5073273;28;19932;-83
2023/07/04 09:05:07;;;;;;;;;;;;;;;25.83;100.00;99592.38;5069970;28;19966;-84
2023/07/04 09:07:39;;;;;;;;;;;;;;;25.90;100.00;99593.06;5072922;28;20440;-83
2023/07/04 09:10:10;;;;;;;;;;;;;;;25.92;100.00;99590.94;5072672;28;19912;-83
2023/07/04 09:12:36;;;;;;;;;;;;;;;26.01;100.00;99589.47;5072415;28;19973;-84
2023/07/04 09:15:27;;;;;;;;;;;;;;;26.04;100.00;99587.09;5077198;28;19916;-83
2023/07/04 09:17:58;;;;;;;;;;;;;;;26.00;100.00;99587.84;5072874;28;20314;-84
2023/07/04 09:20:24;;;;;;;;;;;;;;;26.03;100.00;99587.38;5069691;28;20375;-83
2023/07/04 09:22:49;;;;;;;;;;;;;;;26.06;100.00;99576.88;5073182;28;20011;-84
2023/07/04 09:25:14;;;;;;;;;;;;;;;26.05;100.00;99575.22;5072710;28;20007;-78
2023/07/04 09:27:40;;;;;;;;;;;;;;;26.14;100.00;99572.13;5072749;28;19916;-83
2023/07/04 09:30:06;;;;;;;;;;;;;;;26.22;100.00;99569.84;5072780;28;20003;-82
2023/07/04 09:32:31;;;;;;;;;;;;;;;26.25;100.00;99574.81;5072459;28;20149;-84
2023/07/04 09:35:02;;;;;;;;;;;;;;;26.16;100.00;99570.81;5067605;28;20015;-81
2023/07/04 09:37:28;;;;;;;;;;;;;;;26.17;100.00;99572.47;5068481;28;19920;-82
2023/07/04 09:39:54;;;;;;;;;;;;;;;26.19;100.00;99570.34;5072651;28;20069;-82
2023/07/04 09:42:22;;;;;;;;;;;;;;;26.16;100.00;99564.59;5063523;28;20070;-83
2023/07/04 09:44:51;;;;;;;;;;;;;;;26.19;100.00;99559.53;5070669;28;19916;-83
2023/07/04 09:47:25;;;;;;;;;;;;;;;26.26;100.00;99565.63;5072599;28;19923;-81
2023/07/04 09:50:11;;;;;;;;;;;;;;;26.32;100.00;99561.94;5069764;28;19912;-81
2023/07/04 09:52:38;;;;;;;;;;;;;;;26.42;100.00;99564.81;5070359;28;19920;-81
2023/07/04 09:55:13;;;;;;;;;;;;;;;26.62;100.00;99571.63;5072214;28;20367;-82
2023/07/04 09:57:39;;;;;;;;;;;;;;;26.72;100.00;99569.09;5066030;28;19999;-80
2023/07/04 10:00:16;;;;;;;;;;;;;;;26.82;100.00;99570.06;5071294;28;19974;-87
2023/07/04 10:02:43;;;;;;;;;;;;;;;26.89;100.00;99564.50;5072027;28;19916;-92
2023/07/04 10:05:10;;;;;;;;;;;;;;;26.98;100.00;99563.00;5072609;28;20065;-84
2023/07/04 10:07:36;;;;;;;;;;;;;;;27.04;100.00;99562.00;5071958;28;19920;-85
2023/07/04 10:10:04;;;;;;;;;;;;;;;27.09;100.00;99564.81;5071454;28;19939;-82
2023/07/04 10:12:30;;;;;;;;;;;;;;;27.17;100.00;99568.94;5070511;28;19916;-80
2023/07/04 10:14:57;;;;;;;;;;;;;;;27.21;100.00;99567.41;5071306;28;19943;-80
2023/07/04 10:17:30;;;;;;;;;;;;;;;27.23;100.00;99566.06;5071010;28;19917;-81
2023/07/04 10:19:56;;;;;;;;;;;;;;;27.21;100.00;99560.09;5068375;28;19971;-81
2023/07/04 10:22:25;;;;;;;;;;;;;;;27.20;100.00;99566.56;5071295;28;20005;-81
2023/07/04 10:24:51;;;;;;;;;;;;;;;27.18;100.00;99563.28;5067705;28;19916;-81
2023/07/04 10:27:19;;;;;;;;;;;;;;;27.18;100.00;99560.56;5070720;28;19940;-80
2023/07/04 10:29:47;;;;;;;;;;;;;;;27.10;100.00;99561.00;5065342;28;19970;-81
2023/07/04 10:32:15;;;;;;;;;;;;;;;27.08;100.00;99556.91;5070657;28;20008;-81
2023/07/04 10:34:42;;;;;;;;;;;;;;;27.04;100.00;99551.16;5071014;28;19916;-81
2023/07/04 10:37:09;;;;;;;;;;;;;;;27.04;100.00;99551.16;5071194;28;19969;-81
2023/07/04 10:39:37;;;;;;;;;;;;;;;27.04;100.00;99556.56;5071234;28;19926;-80
2023/07/04 10:42:15;;;;;;;;;;;;;;;27.03;100.00;99549.56;5071131;28;20295;-80
2023/07/04 10:44:42;;;;;;;;;;;;;;;27.07;100.00;99547.97;5070733;28;19927;-80
2023/07/04 10:47:14;;;;;;;;;;;;;;;27.10;100.00;99544.75;5070943;28;19916;-82
2023/07/04 10:49:47;;;;;;;;;;;;;;;27.10;100.00;99549.34;5069770;28;20435;-82
2023/07/04 10:52:18;;;;;;;;;;;;;;;27.20;100.00;99547.59;5071296;28;19970;-79
2023/07/04 10:54:43;;;;;;;;;;;;;;;27.26;100.00;99543.06;5071283;28;19948;-79
2023/07/04 10:57:14;;;;;;;;;;;;;;;27.36;100.00;99536.94;5070691;28;19948;-79
2023/07/04 10:59:42;;;;;;;;;;;;;;;27.43;100.00;99543.84;5070703;28;19916;-80
2023/07/04 11:02:33;;;;;;;;;;;;;;;27.47;100.00;99530.59;5070620;28;20372;-80
2023/07/04 11:05:08;;;;;;;;;;;;;;;27.52;100.00;99536.09;5065946;28;19923;-77
2023/07/04 11:07:36;;;;;;;;;;;;;;;27.51;100.00;99534.47;5069308;28;20394;-80
2023/07/04 11:10:03;;;;;;;;;;;;;;;27.53;100.00;99530.41;5071060;28;19916;-81
2023/07/04 11:12:29;;;;;;;;;;;;;;;27.56;100.00;99531.81;5070032;28;20014;-80
2023/07/04 11:15:18;;;;;;;;;;;;;;;27.56;100.00;99520.97;5070562;28;20023;-80
2023/07/04 11:17:44;;;;;;;;;;;;;;;27.60;100.00;99522.09;5064968;28;19944;-80
2023/07/04 11:20:15;;;;;;;;;;;;;;;27.64;100.00;99512.38;5070748;28;20343;-81
2023/07/04 11:22:46;;;;;;;;;;;;;;;27.70;100.00;99512.19;5071052;28;19916;-80
2023/07/04 11:25:30;;;;;;;;;;;;;;;27.75;100.00;99514.13;5070712;28;19916;-80
2023/07/04 11:28:26;;;;;;;;;;;;;;;27.80;100.00;99514.19;5067179;28;20009;-79
2023/07/04 11:31:05;;;;;;;;;;;;;;;27.92;100.00;99509.41;5029647;28;19917;-78
2023/07/04 11:33:39;;;;;;;;;;;;;;;28.02;100.00;99504.09;5067430;28;19920;-79
2023/07/04 11:36:05;;;;;;;;;;;;;;;28.03;100.00;99504.91;5070495;28;19922;-79
2023/07/04 11:38:32;;;;;;;;;;;;;;;28.08;100.00;99496.81;5070575;28;19916;-80
2023/07/04 11:41:00;;;;;;;;;;;;;;;28.18;100.00;99502.34;5070863;28;19922;-80
2023/07/04 11:43:29;;;;;;;;;;;;;;;28.24;100.00;99495.06;5070027;28;19970;-79
2023/07/04 11:45:59;;;;;;;;;;;;;;;28.31;100.00;99493.78;5069499;28;19916;-80
2023/07/04 11:48:26;;;;;;;;;;;;;;;28.39;98.89;99497.91;5069790;28;19977;-79
2023/07/04 11:50:54;;;;;;;;;;;;;;;28.37;97.46;99490.03;5070581;28;19920;-79
2023/07/04 11:53:23;;;;;;;;;;;;;;;28.40;98.11;99477.81;5065917;28;19973;-80
2023/07/04 11:56:13;;;;;;;;;;;;;;;28.48;97.48;99480.06;5070524;28;20011;-80
2023/07/04 11:58:38;;;;;;;;;;;;;;;28.46;94.83;99469.47;5068993;28;19912;-80
2023/07/04 12:01:04;;;;;;;;;;;;;;;28.55;96.04;99464.38;5069314;28;19916;-80
2023/07/04 12:03:29;;;;;;;;;;;;;;;28.66;95.05;99466.06;5069981;28;19943;-80
2023/07/04 12:05:59;;;;;;;;;;;;;;;28.73;95.77;99461.25;5069007;28;19927;-81
2023/07/04 12:08:30;;;;;;;;;;;;;;;28.69;96.32;99465.53;5070093;28;19973;-81
2023/07/04 12:10:59;;;;;;;;;;;;;;;28.78;96.01;99461.28;5070552;28;19924;-81
2023/07/04 12:13:24;;;;;;;;;;;;;;;28.73;95.41;99463.13;5068847;28;20006;-81
2023/07/04 12:15:50;;;;;;;;;;;;;;;28.84;95.35;99452.06;5070623;28;20023;-81
2023/07/04 12:18:24;;;;;;;;;;;;;;;28.97;93.90;99449.97;5070836;28;19916;-81
2023/07/04 12:20:50;;;;;;;;;;;;;;;29.15;94.35;99449.50;5067852;28;20334;-80
2023/07/04 12:23:17;;;;;;;;;;;;;;;29.32;94.92;99444.66;5072855;28;19920;-80
2023/07/04 12:25:46;;;;;;;;;;;;;;;29.33;93.66;99449.03;5074276;28;20260;-80
2023/07/04 12:28:13;;;;;;;;;;;;;;;29.25;93.65;99450.34;5072642;28;20007;-80
2023/07/04 12:30:47;;;;;;;;;;;;;;;29.12;93.85;99442.69;5071929;28;19921;-79
2023/07/04 12:33:20;;;;;;;;;;;;;;;29.06;93.81;99437.47;5070108;28;19932;-79
2023/07/04 12:35:52;;;;;;;;;;;;;;;29.02;94.04;99441.81;5069967;28;19931;-80
2023/07/04 12:38:17;;;;;;;;;;;;;;;28.95;94.13;99435.81;5071229;28;20291;-81
2023/07/04 12:40:44;;;;;;;;;;;;;;;29.16;93.85;99432.09;5070150;28;19927;-79